Time;durP1;ratioP1;P1;durP2;ratioP2;P2;SDS_P1;SDS_P2;PMS_P1;PMS_P2;Temp;Humidity;BMP_temperature;BMP_pressure;BME280_temperature;BME280_humidity;BME280_pressure;Samples;Min_cycle;Max_cycle;Signal;HPM_P1;HPM_P2
2021/11/16 00:00:22;;;;;;;;;;;20.70;41.20;;;;;;462600;257;2137;-45
2021/11/16 00:02:23;;;;;;;;;;;20.70;41.20;;;;;;462823;257;1312;-46
2021/11/16 00:04:24;;;;;;;;;;;20.80;41.20;;;;;;462577;258;1089;-45
2021/11/16 00:06:26;;;;;;;;;;;20.80;41.30;;;;;;462548;258;1110;-45
2021/11/16 00:08:27;;;;;;;;;;;20.70;41.20;;;;;;462509;257;1212;-46
2021/11/16 00:10:28;;;;;;;;;;;20.70;41.30;;;;;;462442;258;1363;-45
2021/11/16 00:12:30;;;;;;;;;;;20.70;41.20;;;;;;462417;258;1432;-45
2021/11/16 00:14:31;;;;;;;;;;;20.70;41.20;;;;;;462575;257;1034;-45
2021/11/16 00:16:32;;;;;;;;;;;20.80;41.30;;;;;;462587;257;1288;-46
2021/11/16 00:18:35;;;;;;;;;;;20.80;41.20;;;;;;462681;257;1249;-46
2021/11/16 00:20:39;;;;;;;;;;;20.80;41.30;;;;;;462447;258;2613;-45
2021/11/16 00:22:36;;;;;;;;;;;20.80;41.20;;;;;;462214;258;2226;-46
2021/11/16 00:24:38;;;;;;;;;;;20.80;41.20;;;;;;462529;257;1113;-46
2021/11/16 00:26:39;;;;;;;;;;;20.80;41.20;;;;;;462428;257;2455;-46
2021/11/16 00:28:40;;;;;;;;;;;20.80;41.20;;;;;;462541;258;1079;-46
2021/11/16 00:30:41;;;;;;;;;;;20.70;41.30;;;;;;462483;258;1363;-45
2021/11/16 00:32:43;;;;;;;;;;;20.80;41.30;;;;;;462361;258;1240;-46
2021/11/16 00:34:44;;;;;;;;;;;20.70;41.20;;;;;;462677;257;1235;-46
2021/11/16 00:36:45;;;;;;;;;;;20.70;41.30;;;;;;462419;258;1244;-45
2021/11/16 00:38:47;;;;;;;;;;;20.70;41.30;;;;;;462621;258;1261;-45
2021/11/16 00:40:48;;;;;;;;;;;20.70;41.30;;;;;;462905;258;2196;-45
2021/11/16 00:42:49;;;;;;;;;;;20.70;41.30;;;;;;462577;258;1317;-45
2021/11/16 00:44:51;;;;;;;;;;;20.70;41.30;;;;;;462749;257;1088;-45
2021/11/16 00:46:52;;;;;;;;;;;20.70;41.40;;;;;;462665;257;1534;-45
2021/11/16 00:48:53;;;;;;;;;;;20.70;41.40;;;;;;462808;257;1093;-46
2021/11/16 00:50:56;;;;;;;;;;;20.70;41.40;;;;;;462893;257;1165;-45
2021/11/16 00:52:56;;;;;;;;;;;20.70;41.40;;;;;;462622;258;1549;-45
2021/11/16 00:54:57;;;;;;;;;;;20.60;41.40;;;;;;462439;258;1085;-45
2021/11/16 00:56:59;;;;;;;;;;;20.70;41.40;;;;;;462481;257;1138;-45
2021/11/16 00:59:00;;;;;;;;;;;20.70;41.30;;;;;;462640;257;1081;-45
2021/11/16 01:01:01;;;;;;;;;;;20.70;41.30;;;;;;462464;258;2199;-45
2021/11/16 01:03:03;;;;;;;;;;;20.70;41.30;;;;;;462638;257;1156;-45
2021/11/16 01:05:04;;;;;;;;;;;20.70;41.30;;;;;;462547;257;1112;-45
2021/11/16 01:07:05;;;;;;;;;;;20.70;41.30;;;;;;462515;257;1175;-46
2021/11/16 01:09:07;;;;;;;;;;;20.70;41.30;;;;;;462673;257;1199;-45
2021/11/16 01:11:08;;;;;;;;;;;20.70;41.30;;;;;;462787;257;1239;-46
2021/11/16 01:13:09;;;;;;;;;;;20.70;41.30;;;;;;462509;257;1336;-45
2021/11/16 01:15:11;;;;;;;;;;;20.70;41.30;;;;;;462683;257;1077;-45
2021/11/16 01:17:12;;;;;;;;;;;20.70;41.30;;;;;;462512;257;1061;-46
2021/11/16 01:19:14;;;;;;;;;;;20.70;41.30;;;;;;462632;257;1041;-46
2021/11/16 01:21:15;;;;;;;;;;;20.80;41.30;;;;;;462385;257;2133;-45
2021/11/16 01:23:18;;;;;;;;;;;20.70;41.20;;;;;;462816;258;1160;-45
2021/11/16 01:25:18;;;;;;;;;;;20.70;41.30;;;;;;462445;257;2079;-45
2021/11/16 01:27:20;;;;;;;;;;;20.70;41.30;;;;;;462471;257;2293;-46
2021/11/16 01:29:21;;;;;;;;;;;20.70;41.30;;;;;;462452;258;2281;-45
2021/11/16 01:31:21;;;;;;;;;;;20.70;41.30;;;;;;462469;258;1621;-46
2021/11/16 01:33:28;;;;;;;;;;;20.70;41.30;;;;;;462525;257;1288;-45
2021/11/16 01:35:27;;;;;;;;;;;20.70;41.30;;;;;;462462;257;2126;-46
2021/11/16 01:37:29;;;;;;;;;;;20.70;41.40;;;;;;462473;258;1338;-45
2021/11/16 01:39:30;;;;;;;;;;;20.70;41.30;;;;;;462542;258;1199;-46
2021/11/16 01:41:32;;;;;;;;;;;20.70;41.30;;;;;;462593;257;2234;-45
2021/11/16 01:43:33;;;;;;;;;;;20.80;41.30;;;;;;462796;257;1090;-45
2021/11/16 01:45:34;;;;;;;;;;;20.80;41.30;;;;;;462499;257;1035;-45
2021/11/16 01:47:35;;;;;;;;;;;20.70;41.20;;;;;;462463;257;1191;-46
2021/11/16 01:49:37;;;;;;;;;;;20.80;41.40;;;;;;462774;258;1153;-45
2021/11/16 01:51:38;;;;;;;;;;;20.70;41.30;;;;;;462563;258;1281;-45
2021/11/16 01:53:39;;;;;;;;;;;20.70;41.30;;;;;;462476;258;1146;-46
2021/11/16 01:55:41;;;;;;;;;;;20.70;41.40;;;;;;462577;258;1243;-45
2021/11/16 01:57:42;;;;;;;;;;;20.70;41.40;;;;;;462445;257;1183;-45
2021/11/16 01:59:43;;;;;;;;;;;20.70;41.30;;;;;;462852;257;1072;-46
2021/11/16 02:01:45;;;;;;;;;;;20.80;41.40;;;;;;462700;253;2135;-45
2021/11/16 02:03:46;;;;;;;;;;;20.70;41.30;;;;;;462755;257;1088;-46
2021/11/16 02:05:47;;;;;;;;;;;20.70;41.30;;;;;;462571;257;1122;-45
2021/11/16 02:07:49;;;;;;;;;;;20.70;41.30;;;;;;462514;258;1476;-45
2021/11/16 02:09:50;;;;;;;;;;;20.70;41.30;;;;;;462560;258;1170;-45
2021/11/16 02:11:51;;;;;;;;;;;20.70;41.40;;;;;;462392;258;1356;-46
2021/11/16 02:13:53;;;;;;;;;;;20.70;41.40;;;;;;462583;258;1414;-45
2021/11/16 02:15:54;;;;;;;;;;;20.70;41.40;;;;;;462553;257;1243;-45
2021/11/16 02:17:55;;;;;;;;;;;20.70;41.40;;;;;;462434;257;1347;-45
2021/11/16 02:19:57;;;;;;;;;;;20.70;41.40;;;;;;462483;258;1071;-46
2021/11/16 02:21:58;;;;;;;;;;;20.70;41.40;;;;;;462781;257;2152;-45
2021/11/16 02:23:59;;;;;;;;;;;20.70;41.30;;;;;;462727;257;1296;-45
2021/11/16 02:26:00;;;;;;;;;;;20.70;41.40;;;;;;462456;257;1236;-45
2021/11/16 02:28:02;;;;;;;;;;;20.70;41.40;;;;;;462475;254;1419;-45
2021/11/16 02:30:03;;;;;;;;;;;20.70;41.40;;;;;;462754;257;1051;-45
2021/11/16 02:32:05;;;;;;;;;;;20.70;41.40;;;;;;462483;258;1268;-45
2021/11/16 02:34:06;;;;;;;;;;;20.70;41.40;;;;;;462845;257;1118;-45
2021/11/16 02:36:07;;;;;;;;;;;20.70;41.40;;;;;;462486;258;1582;-45
2021/11/16 02:38:08;;;;;;;;;;;20.70;41.40;;;;;;462545;257;1155;-46
2021/11/16 02:40:10;;;;;;;;;;;20.70;41.40;;;;;;462661;258;1196;-46
2021/11/16 02:42:11;;;;;;;;;;;20.70;41.40;;;;;;462480;257;2220;-45
2021/11/16 02:44:17;;;;;;;;;;;20.70;41.40;;;;;;462548;257;1069;-45
2021/11/16 02:46:14;;;;;;;;;;;20.70;41.40;;;;;;462423;258;2343;-45
2021/11/16 02:48:15;;;;;;;;;;;20.70;41.40;;;;;;462679;258;1306;-45
2021/11/16 02:50:16;;;;;;;;;;;20.70;41.40;;;;;;462552;258;1116;-46
2021/11/16 02:52:18;;;;;;;;;;;20.70;41.40;;;;;;462517;257;1238;-45
2021/11/16 02:54:19;;;;;;;;;;;20.70;41.40;;;;;;462725;257;1228;-45
2021/11/16 02:56:20;;;;;;;;;;;20.70;41.40;;;;;;462525;257;1457;-46
2021/11/16 02:58:22;;;;;;;;;;;20.70;41.50;;;;;;462559;257;1171;-45
2021/11/16 03:00:23;;;;;;;;;;;20.70;41.50;;;;;;462501;258;1155;-46
2021/11/16 03:02:24;;;;;;;;;;;20.70;41.40;;;;;;462583;258;2202;-45
2021/11/16 03:04:26;;;;;;;;;;;20.60;41.40;;;;;;462562;257;1228;-45
2021/11/16 03:06:27;;;;;;;;;;;20.70;41.50;;;;;;462643;257;1510;-46
2021/11/16 03:08:29;;;;;;;;;;;20.70;41.50;;;;;;462543;258;1168;-46
2021/11/16 03:10:30;;;;;;;;;;;20.60;41.40;;;;;;462672;257;1111;-46
2021/11/16 03:12:31;;;;;;;;;;;20.70;41.40;;;;;;462504;258;2479;-46
2021/11/16 03:14:32;;;;;;;;;;;20.70;41.40;;;;;;462507;258;1789;-46
2021/11/16 03:16:34;;;;;;;;;;;20.60;41.40;;;;;;462530;253;1365;-46
2021/11/16 03:18:35;;;;;;;;;;;20.70;41.40;;;;;;462670;258;1103;-45
2021/11/16 03:20:36;;;;;;;;;;;20.70;41.40;;;;;;462618;257;1076;-45
2021/11/16 03:22:38;;;;;;;;;;;20.70;41.40;;;;;;462547;257;2128;-45
2021/11/16 03:24:39;;;;;;;;;;;20.60;41.40;;;;;;462777;257;1282;-46
2021/11/16 03:26:40;;;;;;;;;;;20.70;41.50;;;;;;462508;258;1192;-45
2021/11/16 03:28:45;;;;;;;;;;;20.70;41.50;;;;;;462701;257;1138;-45
2021/11/16 03:30:44;;;;;;;;;;;20.60;41.50;;;;;;462530;258;2400;-45
2021/11/16 03:32:45;;;;;;;;;;;20.70;41.60;;;;;;462577;257;2378;-46
2021/11/16 03:34:46;;;;;;;;;;;20.70;41.50;;;;;;462546;257;1159;-45
2021/11/16 03:36:47;;;;;;;;;;;20.70;41.50;;;;;;462490;258;1194;-45
2021/11/16 03:38:48;;;;;;;;;;;20.70;41.50;;;;;;462835;257;1433;-45
2021/11/16 03:40:51;;;;;;;;;;;20.70;41.50;;;;;;462596;258;1322;-46
2021/11/16 03:42:51;;;;;;;;;;;20.60;41.50;;;;;;462509;258;2655;-45
2021/11/16 03:44:53;;;;;;;;;;;20.70;41.50;;;;;;462577;258;1190;-45
2021/11/16 03:46:54;;;;;;;;;;;20.70;41.50;;;;;;462449;257;1343;-45
2021/11/16 03:48:55;;;;;;;;;;;20.70;41.50;;;;;;462630;257;1127;-46
2021/11/16 03:50:57;;;;;;;;;;;20.70;41.50;;;;;;462904;257;1270;-45
2021/11/16 03:52:58;;;;;;;;;;;20.70;41.50;;;;;;462640;257;1082;-46
2021/11/16 03:55:00;;;;;;;;;;;20.70;41.40;;;;;;462572;258;1172;-45
2021/11/16 03:57:01;;;;;;;;;;;20.70;41.40;;;;;;462462;258;1220;-45
2021/11/16 03:59:02;;;;;;;;;;;20.70;41.40;;;;;;462557;257;1072;-45
2021/11/16 04:01:04;;;;;;;;;;;20.70;41.50;;;;;;462737;257;2207;-46
2021/11/16 04:03:05;;;;;;;;;;;20.60;41.40;;;;;;462575;257;1299;-45
2021/11/16 04:05:06;;;;;;;;;;;20.70;41.50;;;;;;462439;258;1065;-46
2021/11/16 04:07:08;;;;;;;;;;;20.70;41.50;;;;;;462598;258;1168;-45
2021/11/16 04:09:09;;;;;;;;;;;20.70;41.50;;;;;;462550;258;1065;-46
2021/11/16 04:11:11;;;;;;;;;;;20.70;41.40;;;;;;462541;257;1210;-45
2021/11/16 04:13:12;;;;;;;;;;;20.70;41.50;;;;;;462478;257;1230;-45
2021/11/16 04:15:13;;;;;;;;;;;20.70;41.50;;;;;;462513;257;1094;-45
2021/11/16 04:17:14;;;;;;;;;;;20.70;41.50;;;;;;462463;258;1191;-46
2021/11/16 04:19:16;;;;;;;;;;;20.70;41.50;;;;;;462504;257;1099;-45
2021/11/16 04:21:17;;;;;;;;;;;20.70;41.50;;;;;;462461;258;2192;-46
2021/11/16 04:23:19;;;;;;;;;;;20.70;41.50;;;;;;462613;258;1225;-45
2021/11/16 04:25:20;;;;;;;;;;;20.70;41.40;;;;;;462434;258;1193;-46
2021/11/16 04:27:21;;;;;;;;;;;20.70;41.50;;;;;;462429;258;1201;-45
2021/11/16 04:29:23;;;;;;;;;;;20.70;41.40;;;;;;462505;257;1062;-45
2021/11/16 04:31:24;;;;;;;;;;;20.70;41.50;;;;;;462589;257;1328;-45
2021/11/16 04:33:25;;;;;;;;;;;20.70;41.50;;;;;;462519;258;1370;-45
2021/11/16 04:35:27;;;;;;;;;;;20.70;41.40;;;;;;462948;257;1116;-46
2021/11/16 04:37:28;;;;;;;;;;;20.70;41.40;;;;;;462476;257;1343;-45
2021/11/16 04:39:29;;;;;;;;;;;20.70;41.50;;;;;;462890;258;1128;-45
2021/11/16 04:41:30;;;;;;;;;;;20.70;41.50;;;;;;462545;257;2573;-46
2021/11/16 04:43:32;;;;;;;;;;;20.60;41.50;;;;;;462684;257;1154;-45
2021/11/16 04:45:33;;;;;;;;;;;20.70;41.50;;;;;;462806;257;1037;-45
2021/11/16 04:47:42;;;;;;;;;;;20.70;41.50;;;;;;462506;257;1332;-45
2021/11/16 04:49:38;;;;;;;;;;;20.70;41.50;;;;;;462193;258;1400;-46
2021/11/16 04:51:57;;;;;;;;;;;20.70;41.50;;;;;;462374;258;1375;-45
2021/11/16 05:03:10;;;;;;;;;;;20.70;41.50;;;;;;462453;258;2125;-45
2021/11/16 05:05:12;;;;;;;;;;;20.70;41.50;;;;;;462636;257;1075;-45
2021/11/16 05:07:14;;;;;;;;;;;20.70;41.60;;;;;;462386;257;2235;-46
2021/11/16 05:09:14;;;;;;;;;;;20.70;41.50;;;;;;462329;258;2426;-46
2021/11/16 05:11:15;;;;;;;;;;;20.70;41.50;;;;;;462480;257;1416;-45
2021/11/16 05:13:16;;;;;;;;;;;20.70;41.60;;;;;;462518;258;1190;-45
2021/11/16 05:15:18;;;;;;;;;;;20.60;41.50;;;;;;462620;258;1081;-45
2021/11/16 05:17:19;;;;;;;;;;;20.70;41.60;;;;;;462444;258;2256;-45
2021/11/16 05:19:20;;;;;;;;;;;20.70;41.50;;;;;;462569;258;1060;-45
2021/11/16 05:21:22;;;;;;;;;;;20.70;41.50;;;;;;462446;258;1139;-45
2021/11/16 05:23:23;;;;;;;;;;;20.60;41.50;;;;;;462609;257;2120;-46
2021/11/16 05:25:25;;;;;;;;;;;20.70;41.50;;;;;;462628;257;1182;-45
2021/11/16 05:27:26;;;;;;;;;;;20.70;41.50;;;;;;462580;257;1277;-45
2021/11/16 05:29:27;;;;;;;;;;;20.60;41.50;;;;;;462432;257;1072;-45
2021/11/16 05:31:28;;;;;;;;;;;20.70;41.60;;;;;;462422;258;1495;-46
2021/11/16 05:33:30;;;;;;;;;;;20.70;41.50;;;;;;462642;258;1249;-46
2021/11/16 05:35:31;;;;;;;;;;;20.60;41.60;;;;;;462420;257;1078;-45
2021/11/16 05:37:32;;;;;;;;;;;20.70;41.60;;;;;;462308;257;1205;-45
2021/11/16 05:39:34;;;;;;;;;;;20.60;41.60;;;;;;462412;258;1085;-45
2021/11/16 05:41:36;;;;;;;;;;;20.60;41.70;;;;;;462892;250;1923;-45
2021/11/16 05:43:37;;;;;;;;;;;20.60;41.50;;;;;;462482;258;2020;-45
2021/11/16 05:45:38;;;;;;;;;;;20.60;41.60;;;;;;463054;250;1742;-45
2021/11/16 05:47:41;;;;;;;;;;;20.70;41.50;;;;;;462331;258;1232;-45
2021/11/16 05:49:41;;;;;;;;;;;20.60;41.50;;;;;;462269;258;2082;-45
2021/11/16 05:51:42;;;;;;;;;;;20.70;41.60;;;;;;462227;257;1392;-45
2021/11/16 05:53:45;;;;;;;;;;;20.60;41.70;;;;;;462410;258;1232;-46
2021/11/16 05:55:45;;;;;;;;;;;20.70;41.70;;;;;;462247;258;1611;-45
2021/11/16 05:57:49;;;;;;;;;;;20.60;41.60;;;;;;462256;258;1229;-45
2021/11/16 05:59:47;;;;;;;;;;;20.60;41.60;;;;;;462096;258;2331;-46
2021/11/16 06:01:50;;;;;;;;;;;20.60;41.70;;;;;;462173;258;2215;-45
2021/11/16 06:03:52;;;;;;;;;;;20.70;41.60;;;;;;462228;258;2317;-46
2021/11/16 06:05:52;;;;;;;;;;;20.60;41.60;;;;;;462341;258;2351;-45
2021/11/16 06:07:53;;;;;;;;;;;20.70;41.60;;;;;;462274;258;1097;-46
2021/11/16 06:09:54;;;;;;;;;;;20.70;41.70;;;;;;462463;257;1305;-45
2021/11/16 06:11:56;;;;;;;;;;;20.60;41.60;;;;;;462363;257;1319;-45
2021/11/16 06:13:58;;;;;;;;;;;20.70;41.70;;;;;;462429;258;1136;-46
2021/11/16 06:15:59;;;;;;;;;;;20.70;41.60;;;;;;462252;257;2360;-46
2021/11/16 06:18:02;;;;;;;;;;;20.60;41.60;;;;;;462358;258;1167;-45
2021/11/16 06:20:01;;;;;;;;;;;20.60;41.60;;;;;;462115;258;2374;-45
2021/11/16 06:22:03;;;;;;;;;;;20.60;41.60;;;;;;462493;253;2133;-45
2021/11/16 06:24:04;;;;;;;;;;;20.60;41.60;;;;;;462309;258;1073;-46
2021/11/16 06:26:05;;;;;;;;;;;20.70;41.60;;;;;;462256;253;1340;-46
2021/11/16 06:28:07;;;;;;;;;;;20.70;41.60;;;;;;462349;258;1228;-45
2021/11/16 06:30:08;;;;;;;;;;;20.70;41.60;;;;;;462246;258;1144;-45
2021/11/16 06:32:10;;;;;;;;;;;20.60;41.60;;;;;;462175;258;1395;-45
2021/11/16 06:34:11;;;;;;;;;;;20.70;41.50;;;;;;462307;257;1132;-46
2021/11/16 06:36:12;;;;;;;;;;;20.70;41.50;;;;;;462278;257;2260;-45
2021/11/16 06:38:13;;;;;;;;;;;20.70;41.60;;;;;;462321;257;1245;-45
2021/11/16 06:40:15;;;;;;;;;;;20.70;41.60;;;;;;462267;257;1076;-45
2021/11/16 06:42:16;;;;;;;;;;;20.70;41.60;;;;;;462290;257;2136;-45
2021/11/16 06:44:18;;;;;;;;;;;20.70;41.60;;;;;;462192;257;1153;-45
2021/11/16 06:46:19;;;;;;;;;;;20.70;41.60;;;;;;462053;257;1958;-46
2021/11/16 06:48:20;;;;;;;;;;;20.60;41.60;;;;;;462178;257;1122;-45
2021/11/16 06:50:21;;;;;;;;;;;20.60;41.60;;;;;;462119;258;1078;-46
2021/11/16 06:52:23;;;;;;;;;;;20.70;41.70;;;;;;462347;257;1198;-45
2021/11/16 06:54:24;;;;;;;;;;;20.60;41.60;;;;;;462181;257;1899;-45
2021/11/16 06:56:26;;;;;;;;;;;20.60;41.60;;;;;;462182;257;1308;-46
2021/11/16 06:58:27;;;;;;;;;;;20.60;41.60;;;;;;462245;257;1123;-45
2021/11/16 07:00:31;;;;;;;;;;;20.70;41.70;;;;;;462042;257;1323;-45
2021/11/16 07:02:29;;;;;;;;;;;20.70;41.60;;;;;;461805;258;2207;-46
2021/11/16 07:04:31;;;;;;;;;;;20.70;41.70;;;;;;462072;258;1128;-45
2021/11/16 07:06:32;;;;;;;;;;;20.60;41.70;;;;;;462094;258;1360;-46
2021/11/16 07:08:34;;;;;;;;;;;20.70;41.60;;;;;;462091;258;1065;-45
2021/11/16 07:10:36;;;;;;;;;;;20.70;41.60;;;;;;462069;257;1375;-45
2021/11/16 07:12:38;;;;;;;;;;;20.70;41.60;;;;;;461898;253;2282;-45
2021/11/16 07:14:37;;;;;;;;;;;20.70;41.60;;;;;;461983;258;2183;-46
2021/11/16 07:16:39;;;;;;;;;;;20.70;41.60;;;;;;461965;258;1226;-45
2021/11/16 07:18:40;;;;;;;;;;;20.70;41.60;;;;;;462031;258;1227;-46
2021/11/16 07:20:43;;;;;;;;;;;20.70;41.50;;;;;;462029;258;1139;-45
2021/11/16 07:22:43;;;;;;;;;;;20.70;41.50;;;;;;461957;257;2215;-46
2021/11/16 07:24:44;;;;;;;;;;;20.70;41.50;;;;;;462067;257;1103;-46
2021/11/16 07:26:46;;;;;;;;;;;20.70;41.50;;;;;;461980;258;1346;-45
2021/11/16 07:28:48;;;;;;;;;;;20.70;41.50;;;;;;461993;258;1227;-45
2021/11/16 07:30:49;;;;;;;;;;;20.70;41.60;;;;;;462028;257;1250;-46
2021/11/16 07:32:50;;;;;;;;;;;20.70;41.50;;;;;;461957;257;1220;-45
2021/11/16 07:34:52;;;;;;;;;;;20.70;41.50;;;;;;462035;257;1537;-46
2021/11/16 07:36:53;;;;;;;;;;;20.70;41.50;;;;;;461959;257;1104;-46
2021/11/16 07:38:55;;;;;;;;;;;20.70;41.50;;;;;;462038;257;1189;-46
2021/11/16 07:40:57;;;;;;;;;;;20.70;41.50;;;;;;461849;257;1116;-46
2021/11/16 07:42:57;;;;;;;;;;;20.70;41.50;;;;;;461525;258;2215;-45
2021/11/16 07:44:59;;;;;;;;;;;20.70;41.50;;;;;;461871;257;1396;-45
2021/11/16 07:47:01;;;;;;;;;;;20.70;41.50;;;;;;461798;257;1200;-45
2021/11/16 07:49:02;;;;;;;;;;;20.60;41.50;;;;;;461896;257;1138;-46
2021/11/16 07:51:03;;;;;;;;;;;20.60;41.50;;;;;;461893;257;1184;-46
2021/11/16 07:53:04;;;;;;;;;;;20.70;41.60;;;;;;462006;257;1230;-46
2021/11/16 07:55:06;;;;;;;;;;;20.70;41.60;;;;;;461741;258;1143;-46
2021/11/16 07:57:07;;;;;;;;;;;20.60;41.50;;;;;;461871;257;1349;-45
2021/11/16 07:59:10;;;;;;;;;;;20.60;41.60;;;;;;461955;258;1271;-45
2021/11/16 08:01:10;;;;;;;;;;;20.60;41.60;;;;;;461726;258;2224;-45
2021/11/16 08:03:13;;;;;;;;;;;20.60;41.60;;;;;;461871;258;2215;-44
2021/11/16 08:05:21;;;;;;;;;;;20.60;41.50;;;;;;461720;258;2300;-45
2021/11/16 08:07:26;;;;;;;;;;;20.60;41.50;;;;;;461106;258;2412;-45
2021/11/16 08:09:25;;;;;;;;;;;20.60;41.50;;;;;;461282;258;2243;-45
2021/11/16 08:11:22;;;;;;;;;;;20.60;41.50;;;;;;461415;258;1591;-45
2021/11/16 08:13:28;;;;;;;;;;;20.60;41.60;;;;;;462114;258;2177;-46
2021/11/16 08:15:28;;;;;;;;;;;20.60;41.50;;;;;;461732;258;2163;-46
2021/11/16 08:17:31;;;;;;;;;;;20.60;41.60;;;;;;461892;257;1135;-46
2021/11/16 08:19:31;;;;;;;;;;;20.70;41.50;;;;;;461951;258;1977;-46
2021/11/16 08:21:32;;;;;;;;;;;20.70;41.50;;;;;;461748;254;1270;-46
2021/11/16 08:23:33;;;;;;;;;;;20.70;41.50;;;;;;461778;257;2202;-47
2021/11/16 08:25:34;;;;;;;;;;;20.70;41.40;;;;;;461786;258;1109;-45
2021/11/16 08:27:36;;;;;;;;;;;20.70;41.50;;;;;;461711;257;1277;-46
2021/11/16 08:29:37;;;;;;;;;;;20.60;41.50;;;;;;461800;257;1232;-45
2021/11/16 08:31:42;;;;;;;;;;;20.60;41.50;;;;;;461720;258;1178;-46
2021/11/16 08:33:40;;;;;;;;;;;20.70;41.40;;;;;;461607;258;2184;-45
2021/11/16 08:35:41;;;;;;;;;;;20.70;41.40;;;;;;461871;257;1092;-45
2021/11/16 08:37:42;;;;;;;;;;;20.70;41.40;;;;;;461907;257;1230;-45
2021/11/16 08:39:44;;;;;;;;;;;20.60;41.40;;;;;;461927;257;1446;-45
2021/11/16 08:41:45;;;;;;;;;;;20.70;41.50;;;;;;462480;248;1237;-46
2021/11/16 08:43:46;;;;;;;;;;;20.70;41.40;;;;;;461662;257;2140;-45
2021/11/16 08:45:48;;;;;;;;;;;20.70;41.40;;;;;;461855;257;1197;-45
2021/11/16 08:47:49;;;;;;;;;;;20.70;41.40;;;;;;461901;257;2261;-46
2021/11/16 08:49:51;;;;;;;;;;;20.70;41.30;;;;;;461799;257;1102;-45
2021/11/16 08:51:53;;;;;;;;;;;20.70;41.30;;;;;;462020;258;1248;-46
2021/11/16 08:53:54;;;;;;;;;;;20.70;41.30;;;;;;462057;257;1106;-46
2021/11/16 08:55:55;;;;;;;;;;;20.70;41.30;;;;;;461851;257;1272;-46
2021/11/16 08:57:57;;;;;;;;;;;20.70;41.20;;;;;;461635;258;1259;-46
2021/11/16 08:59:58;;;;;;;;;;;20.70;41.20;;;;;;461667;257;1243;-45
2021/11/16 09:02:00;;;;;;;;;;;20.70;41.20;;;;;;461628;257;1192;-45
2021/11/16 09:04:01;;;;;;;;;;;20.70;41.30;;;;;;461718;257;2125;-46
2021/11/16 09:06:02;;;;;;;;;;;20.70;41.30;;;;;;461733;257;1141;-45
2021/11/16 09:08:06;;;;;;;;;;;20.70;41.40;;;;;;461678;254;1358;-45
2021/11/16 09:10:05;;;;;;;;;;;20.70;41.50;;;;;;461582;258;2405;-46
2021/11/16 09:12:06;;;;;;;;;;;20.70;41.50;;;;;;461716;257;2417;-45
2021/11/16 09:14:08;;;;;;;;;;;20.70;41.50;;;;;;461716;257;1361;-46
2021/11/16 09:16:09;;;;;;;;;;;20.70;41.50;;;;;;461681;257;1220;-45
2021/11/16 09:18:10;;;;;;;;;;;20.70;41.40;;;;;;461687;258;1187;-45
2021/11/16 09:20:12;;;;;;;;;;;20.70;41.50;;;;;;461816;258;1122;-45
2021/11/16 09:22:13;;;;;;;;;;;20.70;41.40;;;;;;461865;257;1387;-45
2021/11/16 09:24:17;;;;;;;;;;;20.70;41.50;;;;;;461847;257;2203;-45
2021/11/16 09:26:18;;;;;;;;;;;20.70;41.50;;;;;;461586;258;2502;-46
2021/11/16 09:28:22;;;;;;;;;;;20.70;41.40;;;;;;462027;258;1477;-45
2021/11/16 09:30:20;;;;;;;;;;;20.70;41.40;;;;;;461951;258;1964;-46
2021/11/16 09:32:22;;;;;;;;;;;20.70;41.30;;;;;;462565;257;1074;-46
2021/11/16 09:34:23;;;;;;;;;;;20.80;41.40;;;;;;461973;257;1352;-45
2021/11/16 09:36:24;;;;;;;;;;;20.70;41.20;;;;;;462053;257;2734;-46
2021/11/16 09:38:25;;;;;;;;;;;20.70;41.30;;;;;;462563;257;931;-46
2021/11/16 09:40:26;;;;;;;;;;;20.70;41.30;;;;;;461981;258;1122;-46
2021/11/16 09:42:28;;;;;;;;;;;20.70;41.30;;;;;;462151;257;1527;-46
2021/11/16 09:44:29;;;;;;;;;;;20.70;41.30;;;;;;461898;258;2192;-46
2021/11/16 09:46:31;;;;;;;;;;;20.70;41.30;;;;;;461878;257;1315;-46
2021/11/16 09:48:32;;;;;;;;;;;20.70;41.30;;;;;;461818;257;1129;-46
2021/11/16 09:50:34;;;;;;;;;;;20.70;41.30;;;;;;461664;258;1300;-46
2021/11/16 09:52:36;;;;;;;;;;;20.70;41.30;;;;;;462038;257;1264;-46
2021/11/16 09:54:36;;;;;;;;;;;20.70;41.40;;;;;;462214;257;2078;-45
2021/11/16 09:56:38;;;;;;;;;;;20.60;41.40;;;;;;461752;258;1268;-46
2021/11/16 09:58:39;;;;;;;;;;;20.60;41.30;;;;;;461660;258;1082;-46
2021/11/16 10:00:40;;;;;;;;;;;20.60;41.30;;;;;;461387;258;1296;-46
2021/11/16 10:02:42;;;;;;;;;;;20.70;41.30;;;;;;461539;257;1196;-45
2021/11/16 10:04:48;;;;;;;;;;;20.70;41.40;;;;;;461793;258;2199;-46
2021/11/16 10:06:44;;;;;;;;;;;20.70;41.40;;;;;;461549;257;2314;-45
2021/11/16 10:08:46;;;;;;;;;;;20.60;41.30;;;;;;461881;257;1158;-45
2021/11/16 10:10:47;;;;;;;;;;;20.70;41.40;;;;;;461914;257;1329;-45
2021/11/16 10:12:48;;;;;;;;;;;20.60;41.50;;;;;;461784;258;1731;-46
2021/11/16 10:14:50;;;;;;;;;;;20.60;41.40;;;;;;461920;257;1219;-45
2021/11/16 10:16:51;;;;;;;;;;;20.70;41.30;;;;;;461896;257;1327;-45
2021/11/16 10:18:52;;;;;;;;;;;20.60;41.40;;;;;;462213;257;1165;-46
2021/11/16 10:20:53;;;;;;;;;;;20.60;41.30;;;;;;462052;257;1201;-47
2021/11/16 10:22:57;;;;;;;;;;;20.60;41.30;;;;;;462032;257;994;-46
2021/11/16 10:24:56;;;;;;;;;;;20.60;41.30;;;;;;461860;258;2211;-46
2021/11/16 10:26:57;;;;;;;;;;;20.70;41.30;;;;;;461614;257;1332;-46
2021/11/16 10:28:59;;;;;;;;;;;20.60;41.40;;;;;;461805;258;1083;-45
2021/11/16 10:31:01;;;;;;;;;;;20.70;41.40;;;;;;461794;257;1365;-45
2021/11/16 10:33:01;;;;;;;;;;;20.60;41.30;;;;;;461716;258;1542;-45
2021/11/16 10:35:03;;;;;;;;;;;20.60;41.30;;;;;;461721;257;1090;-45
2021/11/16 10:37:04;;;;;;;;;;;20.70;41.30;;;;;;461690;257;1251;-45
2021/11/16 10:39:07;;;;;;;;;;;20.60;41.30;;;;;;461906;257;1079;-45
2021/11/16 10:41:07;;;;;;;;;;;20.70;41.30;;;;;;461768;257;2167;-46
2021/11/16 10:43:08;;;;;;;;;;;20.60;41.30;;;;;;461725;257;1148;-45
2021/11/16 10:45:09;;;;;;;;;;;20.70;41.40;;;;;;461828;257;2137;-46
2021/11/16 10:47:12;;;;;;;;;;;20.60;41.40;;;;;;461722;257;1403;-46
2021/11/16 10:49:14;;;;;;;;;;;20.60;41.30;;;;;;462509;258;1433;-46
2021/11/16 10:51:16;;;;;;;;;;;20.60;41.30;;;;;;462426;253;2255;-46
2021/11/16 10:53:15;;;;;;;;;;;20.70;41.30;;;;;;461828;258;2937;-46
2021/11/16 10:55:16;;;;;;;;;;;20.60;41.30;;;;;;461633;257;1121;-45
2021/11/16 10:57:20;;;;;;;;;;;20.60;41.40;;;;;;461828;257;1222;-46
2021/11/16 10:59:19;;;;;;;;;;;20.60;41.40;;;;;;461949;258;1843;-46
2021/11/16 11:01:20;;;;;;;;;;;20.60;41.40;;;;;;461760;258;1320;-46
2021/11/16 11:03:22;;;;;;;;;;;20.60;41.30;;;;;;461860;258;1205;-46
2021/11/16 11:05:23;;;;;;;;;;;20.70;41.30;;;;;;462578;257;2128;-46
2021/11/16 11:07:26;;;;;;;;;;;20.60;41.20;;;;;;461213;257;1199;-45
2021/11/16 11:09:26;;;;;;;;;;;20.60;41.30;;;;;;461712;258;2283;-45
2021/11/16 11:11:27;;;;;;;;;;;20.60;41.30;;;;;;461887;257;1356;-45
2021/11/16 11:13:29;;;;;;;;;;;20.60;41.30;;;;;;461247;257;1241;-46
2021/11/16 11:15:30;;;;;;;;;;;20.60;41.20;;;;;;461737;257;1397;-45
2021/11/16 11:17:31;;;;;;;;;;;20.60;41.20;;;;;;461832;258;1194;-45
2021/11/16 11:19:34;;;;;;;;;;;20.60;41.10;;;;;;461882;257;1219;-45
2021/11/16 11:21:37;;;;;;;;;;;20.60;41.10;;;;;;461788;257;1638;-46
2021/11/16 11:23:36;;;;;;;;;;;20.60;41.10;;;;;;461726;258;1871;-46
2021/11/16 11:25:43;;;;;;;;;;;20.70;41.10;;;;;;461771;257;2139;-46
2021/11/16 11:27:42;;;;;;;;;;;20.70;41.10;;;;;;461636;257;2212;-45
2021/11/16 11:29:42;;;;;;;;;;;20.70;41.00;;;;;;462306;258;1547;-45
2021/11/16 11:31:41;;;;;;;;;;;20.70;41.00;;;;;;462288;257;1994;-45
2021/11/16 11:33:42;;;;;;;;;;;20.60;41.00;;;;;;462502;257;1389;-45
2021/11/16 11:35:43;;;;;;;;;;;20.70;41.00;;;;;;461789;258;1138;-46
2021/11/16 11:37:45;;;;;;;;;;;20.80;41.00;;;;;;461756;258;1168;-46
2021/11/16 11:39:46;;;;;;;;;;;20.70;40.90;;;;;;461651;258;1337;-46
2021/11/16 11:41:48;;;;;;;;;;;20.70;41.00;;;;;;461696;257;1367;-46
2021/11/16 11:43:49;;;;;;;;;;;20.70;41.00;;;;;;461690;257;2203;-46
2021/11/16 11:45:51;;;;;;;;;;;20.70;41.00;;;;;;461652;257;1196;-45
2021/11/16 11:47:53;;;;;;;;;;;20.70;40.90;;;;;;461741;257;1213;-45
2021/11/16 11:49:54;;;;;;;;;;;20.80;40.90;;;;;;461758;253;1347;-45
2021/11/16 11:51:55;;;;;;;;;;;20.70;40.90;;;;;;461525;258;1337;-45
2021/11/16 11:53:56;;;;;;;;;;;20.80;41.00;;;;;;461642;257;1182;-45
2021/11/16 11:55:58;;;;;;;;;;;20.70;40.90;;;;;;461654;257;1138;-45
2021/11/16 11:58:01;;;;;;;;;;;20.70;40.80;;;;;;461580;258;1347;-45
2021/11/16 12:00:01;;;;;;;;;;;20.70;40.80;;;;;;462015;258;1799;-45
2021/11/16 12:02:03;;;;;;;;;;;20.80;40.90;;;;;;462343;257;1176;-46
2021/11/16 12:04:04;;;;;;;;;;;20.70;40.80;;;;;;462104;257;2207;-46
2021/11/16 12:06:05;;;;;;;;;;;20.70;40.80;;;;;;461700;257;1345;-46